This is the latest recevied weather packets stored in our database for station/object KF4ZNO-13. If no packets are shown the sender has not sent any weather packets the latest 10 day(s).
| Time | Temp. | Humidity | Pressure | Rain* | Wind** | Luminosity | Snow |
|---|---|---|---|---|---|---|---|
| 1777835440 | 24.44° C | 32% | 1021.3 hPa | 0 mm | - | - | - |
| 1777831820 | 23.89° C | 35% | 1021.7 hPa | 0 mm | - | - | - |
| 1777830039 | 22.78° C | 33% | 1021.9 hPa | 0 mm | - | - | - |
| 1777825219 | 22.22° C | 41% | 1022.9 hPa | 0 mm | - | - | - |
| 1777824019 | 21.67° C | 40% | 1023.4 hPa | 0 mm | - | - | - |
| 1777822819 | 21.11° C | 38% | 1023.6 hPa | 0 mm | - | - | - |
| 1777816820 | 16.67° C | 69% | 1022.7 hPa | 0 mm | - | - | - |
| 1777813219 | 10.56° C | 89% | 1022.4 hPa | 0 mm | - | - | - |
| 1777806039 | 8.33° C | 87% | 1021.5 hPa | 0 mm | - | - | - |
| 1777804219 | 8.33° C | 87% | 1021.5 hPa | 0 mm | - | - | - |
| 1777801239 | 8.89° C | 87% | 1021.1 hPa | 0 mm | - | - | - |
| 1777800619 | 8.89° C | 87% | 1021 hPa | 0 mm | - | - | - |
| 1777795220 | 9.44° C | 86% | 1020.4 hPa | 0 mm | - | - | - |
| 1777794639 | 9.44° C | 86% | 1020.4 hPa | 0 mm | - | - | - |
| 1777792820 | 9.44° C | 85% | 1020.6 hPa | 0 mm | - | - | - |
| 1777791020 | 9.44° C | 85% | 1020.3 hPa | 0 mm | - | - | - |
| 1777781420 | 12.22° C | 76% | 1019.7 hPa | 0 mm | - | - | - |
| 1777780820 | 12.22° C | 75% | 1019.6 hPa | 0 mm | - | - | - |
| 1777778420 | 12.78° C | 72% | 1019.5 hPa | 0 mm | - | - | - |
| 1777777220 | 13.33° C | 71% | 1019.3 hPa | 0 mm | - | - | - |
| 1777776660 | 13.33° C | 71% | 1019.1 hPa | 0 mm | - | - | - |
| 1777760419 | 21.11° C | 59% | 1015.4 hPa | 0 mm | - | - | - |
| 1777759819 | 21.67° C | 57% | 1015.2 hPa | 0 mm | - | - | - |
| 1777755020 | 21.67° C | 60% | 1014.8 hPa | 0 mm | - | - | - |
| 1777748419 | 21.11° C | 67% | 1015.6 hPa | 0 mm | - | - | - |
* Rain latest hour (hover to see other rain measurements)
** Current wind speed in m/s (hover to see current wind gust speed)